Time;durP1;ratioP1;P1;durP2;ratioP2;P2;SDS_P1;SDS_P2;PMS_P1;PMS_P2;Temp;Humidity;BMP_temperature;BMP_pressure;BME280_temperature;BME280_humidity;BME280_pressure;Samples;Min_cycle;Max_cycle;Signal;HPM_P1;HPM_P2
2021/12/15 00:01:24;;;;;;;14.30;8.08;;;;;;;5.16;81.07;102216.17;1731557;82;22896;-84
2021/12/15 00:03:51;;;;;;;18.42;11.85;;;;;;;5.18;81.07;102214.95;1731558;82;21779;-83
2021/12/15 00:06:19;;;;;;;30.97;19.27;;;;;;;5.19;81.10;102217.67;1731623;82;21081;-83
2021/12/15 00:08:52;;;;;;;15.80;8.43;;;;;;;5.20;81.07;102223.80;1731539;82;21319;-83
2021/12/15 00:11:19;;;;;;;10.68;6.42;;;;;;;5.22;81.10;102227.45;1731700;82;21073;-83
2021/12/15 00:13:46;;;;;;;12.93;6.35;;;;;;;5.22;81.00;102228.75;1731833;82;21061;-83
2021/12/15 00:16:15;;;;;;;11.05;6.33;;;;;;;5.22;81.00;102232.27;1731686;82;21750;-82
2021/12/15 00:18:44;;;;;;;10.43;7.10;;;;;;;5.22;80.97;102229.65;1731031;82;21551;-83
2021/12/15 00:21:14;;;;;;;19.37;10.08;;;;;;;5.21;80.90;102230.44;1726666;83;21073;-83
2021/12/15 00:23:42;;;;;;;16.15;7.30;;;;;;;5.20;80.90;102232.56;1726485;83;21093;-83
2021/12/15 00:26:09;;;;;;;21.05;12.95;;;;;;;5.20;80.92;102235.16;1726267;83;21080;-83
2021/12/15 00:28:36;;;;;;;15.68;8.90;;;;;;;5.22;80.90;102232.67;1726264;83;21107;-83
2021/12/15 00:31:02;;;;;;;23.80;11.05;;;;;;;5.21;80.90;102234.34;1726229;83;21046;-82
2021/12/15 00:33:29;;;;;;;23.00;14.43;;;;;;;5.21;80.82;102234.76;1726386;83;21133;-82
2021/12/15 00:35:55;;;;;;;15.03;8.95;;;;;;;5.19;80.84;102228.12;1726284;83;21061;-83
2021/12/15 00:38:23;;;;;;;15.48;7.25;;;;;;;5.20;80.82;102233.86;1726483;83;21581;-83
2021/12/15 00:40:49;;;;;;;10.43;5.70;;;;;;;5.20;80.79;102234.23;1726570;83;21756;-83
2021/12/15 00:43:16;;;;;;;21.00;12.43;;;;;;;5.20;80.80;102235.54;1726611;83;21061;-84
2021/12/15 00:45:43;;;;;;;20.20;12.30;;;;;;;5.18;80.72;102231.92;1726453;83;21061;-83
2021/12/15 00:48:10;;;;;;;15.28;10.05;;;;;;;5.17;80.76;102233.63;1726483;83;21069;-83
2021/12/15 00:50:37;;;;;;;19.45;10.80;;;;;;;5.15;80.69;102233.92;1726667;83;21046;-82
2021/12/15 00:53:03;;;;;;;17.67;10.95;;;;;;;5.11;80.68;102230.59;1726468;83;21777;-83
2021/12/15 00:55:30;;;;;;;14.75;9.95;;;;;;;5.07;80.64;102223.36;1726577;83;21084;-83
2021/12/15 00:57:58;;;;;;;25.30;14.20;;;;;;;5.03;80.65;102221.30;1690975;82;21046;-83
2021/12/15 01:00:29;;;;;;;28.20;17.80;;;;;;;4.99;80.63;102221.88;1690045;84;21081;-83
2021/12/15 01:02:56;;;;;;;44.95;27.35;;;;;;;4.95;80.69;102231.20;1647752;86;21121;-84
2021/12/15 01:05:26;;;;;;;27.70;17.35;;;;;;;4.94;80.75;102233.31;1690123;84;21276;-83
2021/12/15 01:07:53;;;;;;;19.73;12.88;;;;;;;4.91;80.67;102229.17;1689882;84;21030;-84
2021/12/15 01:10:27;;;;;;;17.67;11.10;;;;;;;4.86;80.60;102232.77;1690087;84;21093;-84
2021/12/15 01:14:31;;;;;;;17.50;10.65;;;;;;;4.80;80.55;102233.61;1689279;84;21568;-82
2021/12/15 01:20:49;;;;;;;20.77;14.20;;;;;;;4.62;80.59;102250.56;1682240;84;21039;-84
2021/12/15 01:23:21;;;;;;;26.42;17.42;;;;;;;4.59;80.71;102250.32;1679923;85;21039;-84
2021/12/15 01:25:52;;;;;;;23.55;13.75;;;;;;;4.58;80.83;102244.20;1679924;85;21062;-84
2021/12/15 01:28:19;;;;;;;18.95;13.70;;;;;;;4.58;80.85;102247.19;1679890;84;21118;-84
2021/12/15 01:30:47;;;;;;;38.48;19.70;;;;;;;4.56;80.80;102244.50;1679944;85;21778;-84
2021/12/15 01:33:13;;;;;;;24.75;13.20;;;;;;;4.55;80.78;102246.58;1679961;85;21109;-84
2021/12/15 01:35:43;;;;;;;14.18;8.88;;;;;;;4.52;80.85;102248.05;1680004;85;21078;-84
2021/12/15 01:38:10;;;;;;;14.78;10.58;;;;;;;4.51;80.85;102248.45;1679885;85;21078;-84
2021/12/15 01:40:38;;;;;;;16.60;9.60;;;;;;;4.50;80.91;102247.04;1679904;85;21091;-84
2021/12/15 01:43:19;;;;;;;12.33;7.72;;;;;;;4.48;80.95;102240.40;1680010;85;21741;-84
2021/12/15 01:48:26;;;;;;;15.05;7.72;;;;;;;4.43;80.95;102246.59;1679708;85;21043;-84
2021/12/15 01:50:53;;;;;;;15.98;9.08;;;;;;;4.41;81.01;102237.76;1679837;85;21179;-84
2021/12/15 01:53:20;;;;;;;19.80;13.05;;;;;;;4.43;81.10;102244.36;1679895;85;21093;-83
2021/12/15 01:55:46;;;;;;;16.00;9.70;;;;;;;4.41;81.10;102238.12;1679955;85;21774;-83
2021/12/15 01:58:13;;;;;;;15.05;9.93;;;;;;;4.40;81.12;102233.32;1679739;85;21384;-83
2021/12/15 02:00:48;;;;;;;10.32;7.10;;;;;;;4.40;81.13;102242.45;1679659;85;21098;-83
2021/12/15 02:03:15;;;;;;;13.65;9.15;;;;;;;4.39;81.11;102239.34;1679596;85;21102;-83
2021/12/15 02:05:41;;;;;;;11.28;8.05;;;;;;;4.38;81.12;102239.23;1679598;85;21067;-84
2021/12/15 02:08:08;;;;;;;17.35;10.93;;;;;;;4.37;81.11;102236.09;1679682;85;21160;-83
2021/12/15 02:10:37;;;;;;;23.05;12.70;;;;;;;4.35;81.06;102246.41;1679685;85;21066;-84
2021/12/15 02:13:06;;;;;;;14.53;9.20;;;;;;;4.34;81.13;102245.91;1679616;85;21055;-84
2021/12/15 02:15:40;;;;;;;15.40;9.70;;;;;;;4.32;81.12;102245.27;1679766;85;21594;-84
2021/12/15 02:18:09;;;;;;;16.15;10.30;;;;;;;4.29;81.13;102248.56;1679716;85;21082;-84
2021/12/15 02:20:38;;;;;;;18.30;11.43;;;;;;;4.27;81.17;102250.16;1679239;85;21796;-83
2021/12/15 02:23:06;;;;;;;22.58;14.40;;;;;;;4.23;81.20;102243.80;1679288;85;21058;-84
2021/12/15 02:25:33;;;;;;;30.52;16.57;;;;;;;4.23;81.28;102252.92;1679814;85;21074;-84
2021/12/15 02:28:01;;;;;;;17.32;11.95;;;;;;;4.22;81.30;102255.41;1654641;85;21091;-84
2021/12/15 02:33:13;;;;;;;21.93;12.05;;;;;;;4.23;81.44;102252.92;1680005;84;21703;-84
2021/12/15 02:38:17;;;;;;;19.37;11.90;;;;;;;4.25;81.45;102256.95;1679451;85;21047;-84
2021/12/15 02:40:45;;;;;;;13.68;9.10;;;;;;;4.24;81.39;102255.12;1679574;85;21070;-79
2021/12/15 02:43:12;;;;;;;13.75;9.28;;;;;;;4.25;81.44;102246.53;1679118;85;22337;-79
2021/12/15 02:45:39;;;;;;;15.60;9.53;;;;;;;4.23;81.40;102246.41;1678940;85;21747;-79
2021/12/15 02:48:05;;;;;;;16.50;9.58;;;;;;;4.21;81.31;102231.46;1678690;85;21613;-79
2021/12/15 02:50:33;;;;;;;15.03;9.45;;;;;;;4.17;81.34;102232.92;1678862;85;21074;-78
2021/12/15 02:53:00;;;;;;;12.90;8.08;;;;;;;4.15;81.39;102235.81;1678705;85;21097;-79
2021/12/15 02:55:27;;;;;;;19.25;12.07;;;;;;;4.14;81.46;102226.58;1678894;85;21078;-79
2021/12/15 02:57:54;;;;;;;12.82;8.95;;;;;;;4.13;81.39;102232.56;1672374;84;21789;-78
2021/12/15 03:00:27;;;;;;;17.23;10.82;;;;;;;4.12;81.44;102229.06;1679860;84;21066;-78
2021/12/15 03:05:47;;;;;;;14.05;9.70;;;;;;;4.12;81.46;102229.47;1698144;84;21522;-78
2021/12/15 03:08:15;;;;;;;17.55;10.88;;;;;;;4.13;81.45;102228.66;1688087;84;21650;-78
2021/12/15 03:16:11;;;;;;;10.75;7.50;;;;;;;4.12;81.47;102221.25;1717447;83;21065;-77
2021/12/15 03:18:38;;;;;;;17.37;12.03;;;;;;;4.11;81.42;102217.22;1717769;83;21061;-78
2021/12/15 03:21:12;;;;;;;20.20;12.33;;;;;;;4.11;81.49;102225.97;1717414;83;21089;-78
2021/12/15 03:23:54;;;;;;;13.08;9.15;;;;;;;4.11;81.53;102218.15;1717514;83;22630;-78
2021/12/15 03:26:23;;;;;;;20.48;12.60;;;;;;;4.12;81.51;102217.74;1716700;83;21081;-78
2021/12/15 03:34:48;;;;;;;20.10;13.25;;;;;;;4.13;81.50;102224.38;1717195;83;21086;-79
2021/12/15 03:39:29;;;;;;;;;;;;;;;4.17;81.53;102209.87;1721669;83;21011;-83
2021/12/15 03:41:58;;;;;;;110.45;56.10;;;;;;;4.19;81.59;102218.72;1718490;83;20337;-82
2021/12/15 03:44:25;;;;;;;55.00;31.80;;;;;;;4.20;81.53;102222.71;1718168;83;21069;-82
2021/12/15 03:46:51;;;;;;;65.60;35.80;;;;;;;4.19;81.45;102209.59;1717888;83;21089;-83
2021/12/15 03:49:18;;;;;;;59.98;33.02;;;;;;;4.20;81.46;102218.80;1717979;83;21749;-84
2021/12/15 03:51:44;;;;;;;90.20;51.10;;;;;;;4.22;81.48;102215.02;1718252;83;21018;-82
2021/12/15 03:54:11;;;;;;;54.30;31.62;;;;;;;4.22;81.41;102209.43;1718638;83;21082;-85
2021/12/15 03:56:43;;;;;;;44.30;26.68;;;;;;;4.22;81.43;102206.82;1718726;83;21667;-84
2021/12/15 03:59:09;;;;;;;72.87;41.48;;;;;;;4.25;81.46;102205.72;1718309;83;21042;-84
2021/12/15 04:01:36;;;;;;;71.47;40.58;;;;;;;4.28;81.49;102204.66;1718512;83;21820;-83
2021/12/15 04:04:03;;;;;;;41.10;24.65;;;;;;;4.31;81.39;102201.77;1718355;83;21038;-84
2021/12/15 04:06:32;;;;;;;69.80;37.10;;;;;;;4.32;81.42;102207.09;1718646;83;21054;-84
2021/12/15 04:08:59;;;;;;;64.65;37.90;;;;;;;4.32;81.34;102203.19;1718902;83;21563;-83
2021/12/15 04:11:32;;;;;;;48.05;26.55;;;;;;;4.34;81.38;102196.79;1718881;83;21015;-84
2021/12/15 04:14:00;;;;;;;58.00;32.45;;;;;;;4.33;81.32;102193.25;1715968;83;21972;-86
2021/12/15 04:16:58;;;;;;;51.60;30.97;;;;;;;4.32;81.26;102193.13;1718221;83;21045;-87
2021/12/15 04:18:54;;;;;;;43.50;26.05;;;;;;;4.32;81.26;102184.00;1707562;83;22378;-85
2021/12/15 04:21:21;;;;;;;44.55;29.65;;;;;;;4.31;81.27;102184.41;1717054;83;21186;-84
2021/12/15 04:23:55;;;;;;;42.38;27.67;;;;;;;4.29;81.20;102180.80;1716260;83;21078;-84
2021/12/15 04:26:21;;;;;;;23.85;17.07;;;;;;;4.29;81.24;102184.70;1716454;83;21794;-83
2021/12/15 04:28:48;;;;;;;58.92;39.73;;;;;;;4.29;81.18;102187.31;1716549;83;21153;-84
2021/12/15 04:31:18;;;;;;;43.33;31.15;;;;;;;4.28;81.21;102198.55;1716679;83;21101;-84
2021/12/15 04:33:57;;;;;;;42.20;30.60;;;;;;;4.27;81.20;102200.22;1716590;83;21262;-83
2021/12/15 04:36:27;;;;;;;43.05;31.52;;;;;;;4.27;81.26;102194.11;1715486;83;21686;-84
2021/12/15 04:38:54;;;;;;;53.05;38.75;;;;;;;4.28;81.27;102199.44;1693994;83;21842;-84
2021/12/15 04:41:21;;;;;;;56.77;39.00;;;;;;;4.31;81.29;102197.86;1716634;83;21531;-84
2021/12/15 04:43:56;;;;;;;18.55;13.93;;;;;;;4.32;81.23;102187.55;1716577;83;21034;-84
2021/12/15 04:46:17;;;;;;;32.48;23.73;;;;;;;4.35;81.30;102190.77;1715639;83;21086;-84
2021/12/15 04:48:44;;;;;;;24.57;17.62;;;;;;;4.39;81.30;102200.24;1716806;83;21085;-83
2021/12/15 04:51:10;;;;;;;21.97;14.53;;;;;;;4.41;81.24;102205.17;1716597;83;21753;-83
2021/12/15 04:53:37;;;;;;;10.35;8.55;;;;;;;4.43;81.18;102213.08;1716675;83;21201;-84
2021/12/15 04:56:05;;;;;;;10.90;8.35;;;;;;;4.43;81.19;102216.98;1716663;83;21583;-83
2021/12/15 04:58:32;;;;;;;17.90;13.75;;;;;;;4.43;81.11;102228.34;1716951;83;21050;-84
2021/12/15 05:01:01;;;;;;;9.43;7.85;;;;;;;4.44;81.12;102225.33;1704270;83;21070;-82
2021/12/15 05:03:27;;;;;;;10.30;7.45;;;;;;;4.44;81.14;102230.14;1694291;84;21765;-82
2021/12/15 05:05:54;;;;;;;8.70;6.85;;;;;;;4.45;81.09;102229.77;1694630;84;21070;-83
2021/12/15 05:08:21;;;;;;;7.95;6.35;;;;;;;4.45;81.15;102242.40;1659628;84;21083;-83
2021/12/15 05:10:49;;;;;;;10.03;7.15;;;;;;;4.47;81.13;102233.39;1690236;83;21081;-82
2021/12/15 05:13:17;;;;;;;9.88;7.87;;;;;;;4.44;81.12;102232.75;1694181;84;21778;-82
2021/12/15 05:15:43;;;;;;;27.87;20.57;;;;;;;4.47;81.16;102231.68;1694465;84;22586;-82
2021/12/15 05:18:10;;;;;;;29.12;21.02;;;;;;;4.47;81.20;102226.47;1694510;84;21097;-82
2021/12/15 05:20:39;;;;;;;40.90;28.07;;;;;;;4.45;81.15;102218.03;1693639;84;21646;-82
2021/12/15 05:23:09;;;;;;;72.40;47.78;;;;;;;4.49;81.17;102222.67;1689177;84;21098;-82
2021/12/15 05:25:35;;;;;;;49.98;34.92;;;;;;;4.48;81.13;102223.45;1689776;84;21109;-82
2021/12/15 05:28:02;;;;;;;99.07;63.87;;;;;;;4.47;81.14;102217.34;1647658;87;22556;-82
2021/12/15 05:30:29;;;;;;;80.32;53.35;;;;;;;4.47;81.14;102222.55;1675092;85;21140;-84
2021/12/15 05:32:55;;;;;;;48.90;35.25;;;;;;;4.48;81.20;102217.83;1702312;84;21103;-87
2021/12/15 05:35:23;;;;;;;60.00;42.17;;;;;;;4.48;81.19;102215.22;1702123;84;21070;-87
2021/12/15 05:37:53;;;;;;;33.20;23.45;;;;;;;4.50;81.21;102222.27;1703562;84;21070;-86
2021/12/15 05:40:20;;;;;;;89.92;52.50;;;;;;;4.50;81.30;102216.64;1703643;84;21801;-84
2021/12/15 05:42:47;;;;;;;92.33;56.50;;;;;;;4.52;81.38;102219.38;1703053;84;21089;-83
2021/12/15 05:45:13;;;;;;;104.50;63.25;;;;;;;4.54;81.42;102220.39;1703207;84;21069;-83
2021/12/15 05:47:40;;;;;;;94.37;56.05;;;;;;;4.55;81.51;102215.69;1703212;84;21578;-81
2021/12/15 05:50:11;;;;;;;39.35;24.40;;;;;;;4.56;81.52;102207.06;1703005;84;21617;-83
2021/12/15 05:52:38;;;;;;;56.68;32.30;;;;;;;4.58;81.54;102206.77;1702667;84;21824;-82
2021/12/15 05:55:06;;;;;;;47.27;29.82;;;;;;;4.58;81.60;102209.37;1676880;84;21077;-83
2021/12/15 05:57:33;;;;;;;48.17;29.90;;;;;;;4.59;81.64;102209.49;1703186;84;21116;-83
2021/12/15 06:00:00;;;;;;;39.88;24.52;;;;;;;4.61;81.79;102205.70;1703281;84;21687;-83
2021/12/15 06:02:27;;;;;;;39.23;23.60;;;;;;;4.63;81.84;102211.52;1703296;84;21113;-84
2021/12/15 06:04:53;;;;;;;79.58;44.75;;;;;;;4.64;81.88;102209.44;1703170;84;21741;-81
2021/12/15 06:07:20;;;;;;;28.75;18.37;;;;;;;4.67;81.94;102205.76;1703274;84;21125;-85
2021/12/15 06:09:46;;;;;;;36.55;19.98;;;;;;;4.70;82.01;102205.06;1703810;84;21070;-82
2021/12/15 06:12:13;;;;;;;27.30;16.75;;;;;;;4.72;82.00;102199.55;1703731;84;21093;-82
2021/12/15 06:14:42;;;;;;;23.00;14.47;;;;;;;4.71;81.97;102192.55;1703436;84;21030;-82
2021/12/15 06:17:11;;;;;;;17.95;13.45;;;;;;;4.73;82.01;102197.47;1703136;84;21783;-81
2021/12/15 06:19:37;;;;;;;24.05;17.60;;;;;;;4.75;82.06;102200.16;1703135;84;21104;-84
2021/12/15 06:22:05;;;;;;;38.00;26.10;;;;;;;4.77;82.09;102202.10;1693363;84;21069;-82
2021/12/15 06:24:31;;;;;;;42.60;29.35;;;;;;;4.80;82.04;102209.23;1687659;85;21603;-80
2021/12/15 06:27:04;;;;;;;27.42;19.50;;;;;;;4.80;82.07;102210.13;1687761;84;21105;-80
2021/12/15 06:29:29;;;;;;;32.13;22.73;;;;;;;4.80;81.98;102211.44;1687060;84;21764;-81
2021/12/15 06:31:56;;;;;;;29.45;19.87;;;;;;;4.79;82.03;102200.51;1684568;84;21074;-81
2021/12/15 06:34:22;;;;;;;27.20;17.20;;;;;;;4.78;82.05;102196.07;1679750;85;21102;-81
2021/12/15 06:36:49;;;;;;;27.67;18.48;;;;;;;4.79;82.13;102193.98;1679840;85;21567;-82
2021/12/15 06:39:16;;;;;;;38.92;23.73;;;;;;;4.79;82.05;102200.91;1679856;85;21050;-82
2021/12/15 06:41:43;;;;;;;34.67;20.72;;;;;;;4.78;82.09;102203.00;1679764;84;21763;-82
2021/12/15 06:44:11;;;;;;;31.17;19.87;;;;;;;4.76;82.12;102208.10;1679573;85;21054;-82
2021/12/15 06:47:17;;;;;;;27.13;18.05;;;;;;;4.69;82.20;102200.63;1679429;85;21077;-83
2021/12/15 07:00:19;;;;;;;32.70;19.55;;;;;;;4.82;82.44;102209.87;1679664;85;21113;-83
2021/12/15 07:02:45;;;;;;;36.17;22.90;;;;;;;4.82;82.52;102211.17;1679825;84;22946;-83
2021/12/15 07:05:12;;;;;;;32.63;20.92;;;;;;;4.85;82.60;102213.98;1679715;84;21115;-83
2021/12/15 07:07:41;;;;;;;38.80;21.93;;;;;;;4.88;82.67;102209.40;1679477;85;21813;-83
2021/12/15 07:10:09;;;;;;;40.00;23.15;;;;;;;4.91;82.73;102213.92;1679011;83;21120;-83
2021/12/15 07:12:35;;;;;;;46.02;21.82;;;;;;;4.92;82.70;102205.28;1687272;83;21063;-84
2021/12/15 07:15:04;;;;;;;40.23;20.52;;;;;;;4.91;82.63;102199.16;1669274;83;21595;-83
2021/12/15 07:17:31;;;;;;;52.33;24.32;;;;;;;4.92;82.59;102203.59;1665538;85;21097;-83
2021/12/15 07:20:28;;;;;;;60.65;26.42;;;;;;;4.92;82.63;102206.58;1665626;85;21903;-83
2021/12/15 07:25:09;;;;;;;53.83;24.07;;;;;;;4.93;82.67;102201.89;1661391;85;21147;-83
2021/12/15 07:27:35;;;;;;;50.92;23.87;;;;;;;4.93;82.70;102196.67;1642460;87;21611;-83
2021/12/15 07:30:04;;;;;;;54.00;24.12;;;;;;;4.95;82.75;102205.50;1642274;87;21109;-84
2021/12/15 07:32:31;;;;;;;66.90;30.77;;;;;;;4.97;82.84;102196.08;1642380;87;21803;-83
2021/12/15 07:34:58;;;;;;;59.00;28.80;;;;;;;5.00;82.81;102208.95;1642478;87;21117;-83
2021/12/15 07:37:25;;;;;;;46.40;23.85;;;;;;;5.02;82.84;102207.35;1642721;87;21086;-83
2021/12/15 07:39:58;;;;;;;51.10;24.52;;;;;;;5.08;82.92;102217.31;1642483;87;21054;-83
2021/12/15 07:42:32;;;;;;;45.60;24.82;;;;;;;5.10;82.89;102213.52;1642293;87;21078;-83
2021/12/15 07:44:51;;;;;;;49.20;26.90;;;;;;;5.14;82.91;102211.22;1641048;87;21809;-83
2021/12/15 07:47:18;;;;;;;57.00;31.82;;;;;;;5.17;82.89;102211.45;1642418;87;21145;-83
2021/12/15 07:49:45;;;;;;;64.85;37.23;;;;;;;5.18;82.80;102213.64;1642478;87;21598;-83
2021/12/15 07:52:11;;;;;;;43.60;26.02;;;;;;;5.20;82.86;102206.45;1642312;87;21176;-83
2021/12/15 07:54:38;;;;;;;34.20;22.30;;;;;;;5.24;82.86;102205.86;1642694;87;21085;-83
2021/12/15 07:57:09;;;;;;;42.62;26.45;;;;;;;5.26;82.84;102209.89;1642648;87;21783;-83
2021/12/15 07:59:36;;;;;;;36.08;22.58;;;;;;;5.29;82.83;102207.88;1642587;87;21113;-83
2021/12/15 08:02:03;;;;;;;36.05;22.87;;;;;;;5.32;82.85;102208.11;1642717;87;21251;-83
2021/12/15 08:04:33;;;;;;;38.63;22.10;;;;;;;5.38;82.91;102199.38;1642660;87;21118;-83
2021/12/15 08:06:59;;;;;;;45.65;25.92;;;;;;;5.42;82.91;102203.64;1642338;87;21118;-83
2021/12/15 08:09:25;;;;;;;35.63;23.77;;;;;;;5.46;82.78;102203.42;1642622;87;22568;-83
2021/12/15 08:11:52;;;;;;;34.43;23.12;;;;;;;5.47;82.80;102202.63;1642465;87;21157;-83
2021/12/15 08:14:18;;;;;;;42.70;26.82;;;;;;;5.41;82.78;102193.98;1642568;87;21118;-83
2021/12/15 08:16:45;;;;;;;60.98;34.40;;;;;;;5.50;82.71;102217.22;1642561;87;21058;-83
2021/12/15 08:19:15;;;;;;;39.88;24.95;;;;;;;5.50;82.70;102219.83;1642584;87;21088;-82
2021/12/15 08:21:40;;;;;;;40.85;26.27;;;;;;;5.52;82.72;102213.00;1642047;86;21796;-83
2021/12/15 08:24:07;;;;;;;34.73;23.25;;;;;;;5.55;82.77;102210.58;1661279;86;21618;-83
2021/12/15 08:26:34;;;;;;;38.45;26.70;;;;;;;5.57;82.71;102207.67;1665951;86;21081;-83
2021/12/15 08:29:01;;;;;;;37.45;24.60;;;;;;;5.57;82.63;102195.92;1665996;85;21116;-82
2021/12/15 08:31:27;;;;;;;35.35;22.27;;;;;;;5.60;82.68;102192.22;1665379;85;21128;-83
2021/12/15 08:33:54;;;;;;;34.38;20.20;;;;;;;5.63;82.66;102198.05;1665001;85;22444;-83
2021/12/15 08:36:21;;;;;;;33.63;20.77;;;;;;;5.67;82.71;102189.64;1664949;85;21415;-83
2021/12/15 08:38:48;;;;;;;35.45;20.92;;;;;;;5.69;82.66;102190.65;1665214;85;21101;-82
2021/12/15 08:41:19;;;;;;;34.53;20.15;;;;;;;5.68;82.53;102192.73;1664808;86;21093;-83
2021/12/15 08:43:46;;;;;;;39.90;21.87;;;;;;;5.68;82.53;102189.23;1664867;85;21093;-83
2021/12/15 08:46:17;;;;;;;35.78;20.32;;;;;;;5.70;82.65;102191.55;1664741;86;21754;-83
2021/12/15 08:48:44;;;;;;;35.38;20.85;;;;;;;5.72;82.70;102202.59;1664966;85;21113;-83
2021/12/15 08:51:12;;;;;;;41.02;23.27;;;;;;;5.74;82.71;102206.21;1665490;85;21197;-83
2021/12/15 08:53:41;;;;;;;36.60;20.65;;;;;;;5.79;82.78;102206.54;1665642;85;21582;-83
2021/12/15 08:56:08;;;;;;;38.88;22.42;;;;;;;5.79;82.62;102203.52;1665619;86;22341;-83
2021/12/15 08:58:37;;;;;;;45.17;28.05;;;;;;;5.78;82.55;102203.03;1665936;85;22348;-83
2021/12/15 09:01:06;;;;;;;44.98;23.30;;;;;;;5.78;82.45;102203.03;1665938;86;21162;-83
2021/12/15 09:03:33;;;;;;;39.27;23.25;;;;;;;5.75;82.39;102189.75;1666089;85;21138;-82
2021/12/15 09:06:00;;;;;;;44.42;24.75;;;;;;;5.75;82.49;102199.30;1665742;85;21264;-83
2021/12/15 09:08:27;;;;;;;48.80;26.77;;;;;;;5.75;82.50;102184.52;1665948;85;21105;-83
2021/12/15 09:10:56;;;;;;;64.92;35.15;;;;;;;5.76;82.47;102172.36;1666065;85;21797;-83
2021/12/15 09:13:24;;;;;;;80.57;41.05;;;;;;;5.79;82.55;102168.66;1665968;86;21120;-83
2021/12/15 09:15:50;;;;;;;88.45;42.67;;;;;;;5.82;82.62;102162.34;1664140;84;21117;-83
2021/12/15 09:18:17;;;;;;;99.70;44.93;;;;;;;5.88;82.69;102154.90;1699000;83;21598;-81
2021/12/15 09:20:44;;;;;;;95.38;41.83;;;;;;;5.95;82.77;102152.27;1664410;83;21097;-80
2021/12/15 09:23:14;;;;;;;97.95;41.95;;;;;;;6.05;82.84;102152.13;1630300;86;21752;-81
2021/12/15 09:25:40;;;;;;;60.23;29.20;;;;;;;6.15;82.80;102146.68;1620762;88;21077;-81
2021/12/15 09:28:07;;;;;;;49.25;24.18;;;;;;;6.19;82.71;102153.02;1620981;87;21527;-81
2021/12/15 09:30:34;;;;;;;44.60;23.10;;;;;;;6.24;82.74;102156.84;1621147;87;21058;-81
2021/12/15 09:33:01;;;;;;;45.55;23.57;;;;;;;6.27;82.66;102158.74;1620961;88;21595;-81
2021/12/15 09:35:30;;;;;;;42.80;23.85;;;;;;;6.26;82.63;102152.62;1621010;88;22611;-81
2021/12/15 09:37:57;;;;;;;45.78;23.75;;;;;;;6.31;82.70;102151.63;1621007;88;21566;-80
2021/12/15 09:40:23;;;;;;;43.42;23.07;;;;;;;6.33;82.61;102148.29;1621211;88;21148;-81
2021/12/15 09:42:50;;;;;;;40.05;22.50;;;;;;;6.33;82.61;102141.75;1620958;88;21097;-81
2021/12/15 10:04:20;;;;;;;59.50;34.40;;;;;;;6.34;82.65;102150.08;1634918;87;21423;-79
2021/12/15 10:06:51;;;;;;;57.40;32.48;;;;;;;6.35;82.64;102151.02;1632773;87;21066;-79
2021/12/15 10:12:07;;;;;;;50.98;30.70;;;;;;;6.32;82.67;102140.34;1635015;87;21101;-79
2021/12/15 10:22:28;;;;;;;38.38;25.80;;;;;;;6.47;82.65;102160.94;1831538;77;22716;-79
2021/12/15 10:24:57;;;;;;;41.37;24.85;;;;;;;6.40;82.64;102159.66;1788668;79;21035;-80
2021/12/15 10:28:05;;;;;;;38.90;24.50;;;;;;;6.45;82.79;102159.94;1789617;79;22018;-80
2021/12/15 10:30:39;;;;;;;36.70;22.77;;;;;;;6.51;82.81;102155.09;1754665;81;21030;-80
2021/12/15 10:33:20;;;;;;;44.13;27.40;;;;;;;6.56;82.78;102144.52;1737827;82;21122;-80
2021/12/15 10:36:00;;;;;;;35.48;21.75;;;;;;;6.63;82.88;102143.22;1737111;82;21078;-80
2021/12/15 10:38:40;;;;;;;36.75;23.05;;;;;;;6.70;82.81;102153.27;1738127;82;21031;-79
2021/12/15 10:41:18;;;;;;;39.48;23.32;;;;;;;6.77;82.89;102151.92;1737891;82;21919;-79
2021/12/15 10:43:50;;;;;;;33.05;22.50;;;;;;;6.87;82.87;102157.32;1738106;81;21083;-80
2021/12/15 10:46:28;;;;;;;33.55;22.20;;;;;;;6.94;82.76;102155.18;1722707;81;21125;-80
2021/12/15 10:49:04;;;;;;;35.43;22.37;;;;;;;6.98;82.65;102153.28;1749681;81;21086;-80
2021/12/15 10:51:49;;;;;;;41.98;24.23;;;;;;;7.04;82.64;102151.45;1749576;81;21121;-80
2021/12/15 10:54:27;;;;;;;40.35;24.32;;;;;;;7.10;82.61;102143.96;1749459;81;22035;-80
2021/12/15 10:56:59;;;;;;;35.05;24.63;;;;;;;7.14;82.48;102131.55;1749524;81;21082;-80
2021/12/15 10:59:28;;;;;;;38.15;24.92;;;;;;;7.17;82.37;102133.05;1749547;81;21125;-80
2021/12/15 11:02:06;;;;;;;41.08;28.57;;;;;;;7.22;82.43;102135.05;1749469;81;21082;-80
2021/12/15 11:04:41;;;;;;;44.45;32.23;;;;;;;7.26;82.32;102136.62;1749661;81;21078;-80
2021/12/15 11:07:15;;;;;;;41.48;29.63;;;;;;;7.30;82.34;102140.33;1749473;81;21774;-80
2021/12/15 11:10:10;;;;;;;71.47;46.10;;;;;;;7.32;82.19;102143.94;1749599;81;21133;-80
2021/12/15 11:12:40;;;;;;;56.77;37.13;;;;;;;7.34;82.20;102140.62;1719090;83;21118;-80
2021/12/15 11:15:12;;;;;;;40.12;28.12;;;;;;;7.37;82.14;102144.72;1719045;83;21110;-80
2021/12/15 11:17:53;;;;;;;50.50;35.75;;;;;;;7.39;82.09;102144.44;1733064;81;21046;-80
2021/12/15 11:20:24;;;;;;;70.85;47.95;;;;;;;7.40;82.01;102128.30;1747992;81;22589;-81
2021/12/15 11:22:54;;;;;;;65.40;44.40;;;;;;;7.42;82.02;102132.33;1752290;81;21069;-80
2021/12/15 11:25:32;;;;;;;53.78;38.13;;;;;;;7.43;82.02;102124.95;1748626;81;21162;-80
2021/12/15 11:28:06;;;;;;;68.28;44.23;;;;;;;7.46;82.05;102122.11;1728525;81;21065;-80
2021/12/15 11:30:46;;;;;;;47.13;32.35;;;;;;;7.47;81.96;102113.45;1789809;80;21100;-80
2021/12/15 11:33:24;;;;;;;38.95;27.40;;;;;;;7.49;81.92;102114.45;1788450;80;21822;-80
2021/12/15 11:36:14;;;;;;;46.40;32.30;;;;;;;7.50;81.90;102117.55;1789243;80;21093;-79
2021/12/15 11:38:50;;;;;;;46.92;33.73;;;;;;;7.51;81.89;102113.23;1742745;81;21035;-81
2021/12/15 11:41:24;;;;;;;39.33;26.30;;;;;;;7.49;81.82;102120.06;1711618;83;21123;-78
2021/12/15 11:43:56;;;;;;;37.78;26.17;;;;;;;7.49;81.84;102117.06;1722008;83;22266;-81
2021/12/15 11:46:30;;;;;;;35.73;23.62;;;;;;;7.46;81.73;102123.84;1742660;82;21150;-82
2021/12/15 11:49:10;;;;;;;43.48;27.52;;;;;;;7.43;81.71;102124.95;1721984;83;21086;-81
2021/12/15 11:51:45;;;;;;;31.40;22.13;;;;;;;7.42;81.79;102120.55;1742649;82;21004;-81
2021/12/15 11:54:26;;;;;;;37.65;24.55;;;;;;;7.42;81.82;102124.05;1721889;83;21094;-82
2021/12/15 11:57:01;;;;;;;39.03;27.45;;;;;;;7.44;81.84;102121.53;1742507;82;21179;-81
2021/12/15 11:59:42;;;;;;;40.88;26.85;;;;;;;7.45;81.81;102116.39;1721839;83;21831;-83
2021/12/15 12:02:43;;;;;;;41.88;29.55;;;;;;;7.46;81.85;102110.32;1742615;82;21104;-83
2021/12/15 12:05:20;;;;;;;35.35;23.73;;;;;;;7.46;81.80;102105.08;1721553;83;21527;-81
2021/12/15 12:07:53;;;;;;;35.75;23.55;;;;;;;7.45;81.78;102103.30;1742514;82;21565;-81
2021/12/15 12:10:46;;;;;;;34.25;22.32;;;;;;;7.46;81.81;102097.64;1721777;83;21117;-83
2021/12/15 12:13:21;;;;;;;33.45;23.20;;;;;;;7.50;81.92;102087.41;1659479;86;21822;-80
2021/12/15 12:15:47;;;;;;;40.80;26.55;;;;;;;7.53;81.85;102095.47;1677013;84;21133;-80
2021/12/15 12:18:18;;;;;;;38.05;25.95;;;;;;;7.55;81.81;102089.02;1678544;85;21078;-80
2021/12/15 12:20:47;;;;;;;33.13;22.58;;;;;;;7.57;81.84;102088.27;1678439;85;21066;-80
2021/12/15 12:23:17;;;;;;;36.58;23.47;;;;;;;7.57;81.76;102092.20;1678562;85;21138;-80
2021/12/15 12:25:50;;;;;;;47.88;31.42;;;;;;;7.58;81.69;102090.48;1678705;85;21775;-80
2021/12/15 12:28:21;;;;;;;45.92;30.17;;;;;;;7.59;81.70;102090.99;1678269;85;21110;-83
2021/12/15 12:31:01;;;;;;;43.73;25.92;;;;;;;7.59;81.71;102087.95;1679083;85;21158;-82
2021/12/15 12:33:28;;;;;;;44.00;29.40;;;;;;;7.59;81.67;102087.06;1677865;85;21113;-82
2021/12/15 12:36:05;;;;;;;40.73;26.75;;;;;;;7.57;81.71;102084.34;1679260;85;21126;-82
2021/12/15 12:38:34;;;;;;;55.17;32.90;;;;;;;7.62;81.78;102080.70;1739108;82;21788;-83
2021/12/15 12:41:05;;;;;;;42.98;28.85;;;;;;;7.63;81.66;102075.94;1742118;81;21578;-82
2021/12/15 12:43:35;;;;;;;41.75;29.15;;;;;;;7.63;81.70;102076.35;1742080;82;21072;-82